Gaz Fraternity — 3ETS6 — position and weather

sailwx.info

Track history (hours):
 
Tides and Currents Weather Stations Pressure Air Temp Water Temp Dewpoint Dewpoint Depression Visibility Wind Speed Wind Dir Waves Ship Positions

Gaz Fraternity

Last reported at 2018-Aug-13 20:00 UTC. Time now 2018-Aug-16 20:18 UTC.
Position N 35°58' E 014°52'.

Length 154 m; draft 6.7 m.

Type: Ship (hazmat cat D). MMSI: 372668000.

Date/timePositionNaut miles runAvg speedWind from/ knotsBaromVisibWave heightAir tempDewpointWater temp
2018-Aug-13 20:00N 35°58' E 014°52'0 0.0
2018-Aug-13 19:30N 35°58' E 014°52'0 0.0
2018-Aug-13 18:57N 35°58' E 014°52'0 0.0
2018-Aug-13 18:30N 35°58' E 014°52'0 0.0
2018-Aug-13 17:21N 35°58' E 014°52'0 0.0
2018-Aug-13 16:33N 35°58' E 014°52'0 0.1
2018-Aug-13 16:30N 35°58' E 014°52'0 0.0
2018-Aug-13 16:00N 35°58' E 014°52'0 0.0
2018-Aug-13 14:48N 35°58' E 014°52'0 0.0
2018-Aug-13 14:24N 35°58' E 014°52'0 0.0
2018-Aug-13 13:57N 35°58' E 014°52'0 0.1
2018-Aug-13 13:30N 35°58' E 014°52'0 0.0
2018-Aug-13 09:54N 35°58' E 014°52'0 0.0
2018-Aug-13 09:30N 35°58' E 014°52'0 0.1
2018-Aug-13 08:39N 35°58' E 014°52'0 0.0
2018-Aug-13 03:00N 35°58' E 014°52'0 0.0
2018-Aug-13 02:30N 35°58' E 014°52'0 0.0
2018-Aug-12 23:27N 35°58' E 014°52'0 0.0
2018-Aug-12 23:00N 35°58' E 014°52'0 0.0
2018-Aug-12 22:30N 35°58' E 014°52'0 0.0
2018-Aug-12 21:48N 35°58' E 014°52'0 0.0
2018-Aug-12 21:30N 35°58' E 014°52'0 0.0
2018-Aug-12 18:24N 35°58' E 014°52'0 0.0
2018-Aug-11 10:54N 35°58' E 014°52'0 0.0
2018-Aug-11 09:48N 35°58' E 014°52'0 0.0
2018-Aug-11 09:27N 35°58' E 014°52'0 0.0
2018-Aug-11 09:00N 35°58' E 014°52'0 0.0
2018-Aug-11 06:12N 35°58' E 014°52'0 0.0
2018-Aug-11 05:57N 35°58' E 014°52'0 0.1
2018-Aug-11 05:30N 35°58' E 014°52'0 0.0
2018-Aug-11 05:00N 35°58' E 014°52'0 0.0
2018-Aug-11 04:21N 35°58' E 014°52'0 0.0
2018-Aug-11 04:00N 35°58' E 014°52'0 0.0
2018-Aug-11 03:27N 35°58' E 014°52'0 0.0
2018-Aug-11 02:54N 35°58' E 014°52'0 0.0
2018-Aug-11 02:27N 35°58' E 014°52'2 4.1
2018-Aug-11 02:00N 35°56' E 014°50'611.0
2018-Aug-11 01:29N 35°52' E 014°45'0 0.1
2018-Aug-11 00:59N 35°52' E 014°46'0 0.0
2018-Aug-11 00:29N 35°52' E 014°46'0 0.0
2018-Aug-10 23:53N 35°52' E 014°46'0 0.0
2018-Aug-10 23:28N 35°52' E 014°46'0 0.0
2018-Aug-10 22:58N 35°52' E 014°46'0 0.0
2018-Aug-10 22:25N 35°52' E 014°46'0 0.0
2018-Aug-10 21:58N 35°52' E 014°46'0 0.0
2018-Aug-10 21:29N 35°52' E 014°46'0 0.0
2018-Aug-10 20:58N 35°52' E 014°46'0 0.0
2018-Aug-10 20:07N 35°52' E 014°46'0 0.0
2018-Aug-10 19:58N 35°52' E 014°46'0 0.0
2018-Aug-10 19:25N 35°52' E 014°46'0 0.0
2018-Aug-10 18:22N 35°52' E 014°46'1 1.7
2018-Aug-10 18:01N 35°52' E 014°46'714.4
2018-Aug-10 17:30N 35°55' E 014°55'2 2.5
2018-Aug-10 16:53N 35°55' E 014°57'0 0.1
2018-Aug-10 16:26N 35°55' E 014°57'0 0.1
2018-Aug-10 15:56N 35°55' E 014°57'0 0.0
2018-Aug-10 15:23N 35°55' E 014°57'0 0.0
2018-Aug-10 14:59N 35°55' E 014°57'0 0.2
2018-Aug-10 14:14N 35°55' E 014°57'0 0.2
2018-Aug-10 13:59N 35°55' E 014°57'0 0.2
2018-Aug-10 13:29N 35°55' E 014°57'0 0.3
2018-Aug-10 12:53N 35°55' E 014°57'0 0.3
2018-Aug-10 11:08N 35°56' E 014°57'0 0.2
2018-Aug-10 10:44N 35°56' E 014°57'0 0.5
2018-Aug-10 10:20N 35°56' E 014°57'3 9.8
2018-Aug-10 10:00N 35°59' E 014°58'11717.3
2018-Aug-10 03:13N 37°33' E 016°24'200 4.7
2018-Aug-08 08:58N 40°40' E 017°59'  
Track history (hours):
 
Tides and Currents Weather Stations Pressure Air Temp Water Temp Dewpoint Dewpoint Depression Visibility Wind Speed Wind Dir Waves Ship Positions

Gaz Fraternity

Last reported at 2018-Aug-13 20:00 UTC. Time now 2018-Aug-16 20:18 UTC.
Position N 35°58' E 014°52'.

Length 154 m; draft 6.7 m.

Type: Ship (hazmat cat D). MMSI: 372668000.

Date/timePositionNaut miles runAvg speedWind from/ knotsBaromVisibWave heightAir tempDewpointWater temp
2018-Aug-13 20:00N 35°58' E 014°52'0 0.0
2018-Aug-13 19:30N 35°58' E 014°52'0 0.0
2018-Aug-13 18:57N 35°58' E 014°52'0 0.0
2018-Aug-13 18:30N 35°58' E 014°52'0 0.0
2018-Aug-13 17:21N 35°58' E 014°52'0 0.0
2018-Aug-13 16:33N 35°58' E 014°52'0 0.1
2018-Aug-13 16:30N 35°58' E 014°52'0 0.0
2018-Aug-13 16:00N 35°58' E 014°52'0 0.0
2018-Aug-13 14:48N 35°58' E 014°52'0 0.0
2018-Aug-13 14:24N 35°58' E 014°52'0 0.0
2018-Aug-13 13:57N 35°58' E 014°52'0 0.1
2018-Aug-13 13:30N 35°58' E 014°52'0 0.0
2018-Aug-13 09:54N 35°58' E 014°52'0 0.0
2018-Aug-13 09:30N 35°58' E 014°52'0 0.1
2018-Aug-13 08:39N 35°58' E 014°52'0 0.0
2018-Aug-13 03:00N 35°58' E 014°52'0 0.0
2018-Aug-13 02:30N 35°58' E 014°52'0 0.0
2018-Aug-12 23:27N 35°58' E 014°52'0 0.0
2018-Aug-12 23:00N 35°58' E 014°52'0 0.0
2018-Aug-12 22:30N 35°58' E 014°52'0 0.0
2018-Aug-12 21:48N 35°58' E 014°52'0 0.0
2018-Aug-12 21:30N 35°58' E 014°52'0 0.0
2018-Aug-12 18:24N 35°58' E 014°52'0 0.0
2018-Aug-11 10:54N 35°58' E 014°52'0 0.0
2018-Aug-11 09:48N 35°58' E 014°52'0 0.0
2018-Aug-11 09:27N 35°58' E 014°52'0 0.0
2018-Aug-11 09:00N 35°58' E 014°52'0 0.0
2018-Aug-11 06:12N 35°58' E 014°52'0 0.0
2018-Aug-11 05:57N 35°58' E 014°52'0 0.1
2018-Aug-11 05:30N 35°58' E 014°52'0 0.0
2018-Aug-11 05:00N 35°58' E 014°52'0 0.0
2018-Aug-11 04:21N 35°58' E 014°52'0 0.0
2018-Aug-11 04:00N 35°58' E 014°52'0 0.0
2018-Aug-11 03:27N 35°58' E 014°52'0 0.0
2018-Aug-11 02:54N 35°58' E 014°52'0 0.0
2018-Aug-11 02:27N 35°58' E 014°52'2 4.1
2018-Aug-11 02:00N 35°56' E 014°50'611.0
2018-Aug-11 01:29N 35°52' E 014°45'0 0.1
2018-Aug-11 00:59N 35°52' E 014°46'0 0.0
2018-Aug-11 00:29N 35°52' E 014°46'0 0.0
2018-Aug-10 23:53N 35°52' E 014°46'0 0.0
2018-Aug-10 23:28N 35°52' E 014°46'0 0.0
2018-Aug-10 22:58N 35°52' E 014°46'0 0.0
2018-Aug-10 22:25N 35°52' E 014°46'0 0.0
2018-Aug-10 21:58N 35°52' E 014°46'0 0.0
2018-Aug-10 21:29N 35°52' E 014°46'0 0.0
2018-Aug-10 20:58N 35°52' E 014°46'0 0.0
2018-Aug-10 20:07N 35°52' E 014°46'0 0.0
2018-Aug-10 19:58N 35°52' E 014°46'0 0.0
2018-Aug-10 19:25N 35°52' E 014°46'0 0.0
2018-Aug-10 18:22N 35°52' E 014°46'1 1.7
2018-Aug-10 18:01N 35°52' E 014°46'714.4
2018-Aug-10 17:30N 35°55' E 014°55'2 2.5
2018-Aug-10 16:53N 35°55' E 014°57'0 0.1
2018-Aug-10 16:26N 35°55' E 014°57'0 0.1
2018-Aug-10 15:56N 35°55' E 014°57'0 0.0
2018-Aug-10 15:23N 35°55' E 014°57'0 0.0
2018-Aug-10 14:59N 35°55' E 014°57'0 0.2
2018-Aug-10 14:14N 35°55' E 014°57'0 0.2
2018-Aug-10 13:59N 35°55' E 014°57'0 0.2
2018-Aug-10 13:29N 35°55' E 014°57'0 0.3
2018-Aug-10 12:53N 35°55' E 014°57'0 0.3
2018-Aug-10 11:08N 35°56' E 014°57'0 0.2
2018-Aug-10 10:44N 35°56' E 014°57'0 0.5
2018-Aug-10 10:20N 35°56' E 014°57'3 9.8
2018-Aug-10 10:00N 35°59' E 014°58'11717.3
2018-Aug-10 03:13N 37°33' E 016°24'200 4.7
2018-Aug-08 08:58N 40°40' E 017°59'  

Dump ship's entire track history